UAL2228 KMSY-KIAH
Flight info
| Callsign | UAL2228 |
|---|---|
| Flight time | 0h 59m |
| Altitude | 32000 |
| Route | DCT JEPEG SOULL1 |
| Aircraft | A320/M-VGDW/C |
Departure
| Time | 2026-05-07 00:53 |
|---|---|
| Airport | Louis Armstrong New Orleans International Airport (KMSY) |
Arrival
| Time | 2026-05-07 01:53 |
|---|---|
| Airport | George Bush Intercontinental Airport (KIAH) |
| Time | Latitude | Longitude | Altitude | Speed | Heading |
|---|---|---|---|---|---|
| 2026-05-07 00:29 | 29.99379 | -90.25431 | 7 ft | 0 kts | 91° |
| 2026-05-07 00:43 | 29.99380 | -90.25437 | 7 ft | 4 kts | 90° |
| 2026-05-07 00:43 | 29.99380 | -90.25468 | 7 ft | 4 kts | 91° |
| 2026-05-07 00:43 | 29.99381 | -90.25493 | 7 ft | 2 kts | 107° |
| 2026-05-07 00:43 | 29.99386 | -90.25505 | 7 ft | 2 kts | 166° |
| 2026-05-07 00:44 | 29.99401 | -90.25506 | 10 ft | 1 kts | 179° |
| 2026-05-07 00:44 | 29.99385 | -90.25507 | 7 ft | 1 kts | 182° |
| 2026-05-07 00:44 | 29.99382 | -90.25507 | 6 ft | 0 kts | 182° |
| 2026-05-07 00:47 | 29.99380 | -90.25507 | 6 ft | 1 kts | 182° |
| 2026-05-07 00:47 | 29.99357 | -90.25508 | 6 ft | 6 kts | 181° |
| 2026-05-07 00:47 | 29.99295 | -90.25510 | 6 ft | 11 kts | 182° |
| 2026-05-07 00:47 | 29.99213 | -90.25532 | 7 ft | 13 kts | 231° |
| 2026-05-07 00:48 | 29.99202 | -90.25652 | 5 ft | 17 kts | 278° |
| 2026-05-07 00:48 | 29.99228 | -90.25790 | 4 ft | 15 kts | 285° |
| 2026-05-07 00:48 | 29.99296 | -90.25862 | 4 ft | 13 kts | 343° |
| 2026-05-07 00:48 | 29.99351 | -90.25935 | 3 ft | 14 kts | 285° |
| 2026-05-07 00:49 | 29.99377 | -90.26048 | 5 ft | 15 kts | 285° |
| 2026-05-07 00:49 | 29.99405 | -90.26162 | 7 ft | 15 kts | 285° |
| 2026-05-07 00:49 | 29.99433 | -90.26278 | 7 ft | 16 kts | 286° |
| 2026-05-07 00:49 | 29.99464 | -90.26405 | 10 ft | 17 kts | 285° |
| 2026-05-07 00:50 | 29.99496 | -90.26538 | 10 ft | 17 kts | 285° |
| 2026-05-07 00:50 | 29.99530 | -90.26677 | 10 ft | 19 kts | 285° |
| 2026-05-07 00:50 | 29.99567 | -90.26829 | 13 ft | 20 kts | 286° |
| 2026-05-07 00:50 | 29.99604 | -90.26983 | 11 ft | 21 kts | 285° |
| 2026-05-07 00:51 | 29.99642 | -90.27140 | 7 ft | 19 kts | 285° |
| 2026-05-07 00:51 | 29.99676 | -90.27281 | 5 ft | 18 kts | 285° |
| 2026-05-07 00:51 | 29.99710 | -90.27424 | 6 ft | 18 kts | 285° |
| 2026-05-07 00:51 | 29.99741 | -90.27554 | 5 ft | 17 kts | 285° |
| 2026-05-07 00:52 | 29.99720 | -90.27659 | 4 ft | 15 kts | 215° |
| 2026-05-07 00:52 | 29.99619 | -90.27697 | 1 ft | 16 kts | 196° |
| 2026-05-07 00:52 | 29.99548 | -90.27691 | 0 ft | 10 kts | 121° |
| 2026-05-07 00:52 | 29.99514 | -90.27552 | 2 ft | 43 kts | 105° |
| 2026-05-07 00:53 | 29.99367 | -90.26944 | 8 ft | 111 kts | 105° |
| 2026-05-07 00:53 | 29.99111 | -90.25896 | 71 ft | 153 kts | 106° |
| 2026-05-07 00:53 | 29.98824 | -90.24703 | 672 ft | 156 kts | 110° |
| 2026-05-07 00:53 | 29.98540 | -90.23478 | 1270 ft | 160 kts | 112° |
| 2026-05-07 00:54 | 29.98245 | -90.22245 | 1830 ft | 168 kts | 115° |
| 2026-05-07 00:54 | 29.97652 | -90.21065 | 2062 ft | 176 kts | 147° |
| 2026-05-07 00:54 | 29.96493 | -90.20564 | 2267 ft | 188 kts | 184° |
| 2026-05-07 00:54 | 29.95251 | -90.21147 | 2527 ft | 209 kts | 225° |
| 2026-05-07 00:55 | 29.94523 | -90.22708 | 2871 ft | 236 kts | 249° |
| 2026-05-07 00:55 | 29.94078 | -90.24569 | 3614 ft | 243 kts | 254° |
| 2026-05-07 00:55 | 29.93713 | -90.26483 | 4481 ft | 245 kts | 255° |
| 2026-05-07 00:55 | 29.93359 | -90.28411 | 5311 ft | 247 kts | 256° |
| 2026-05-07 00:56 | 29.92991 | -90.30354 | 6144 ft | 249 kts | 255° |
| 2026-05-07 00:56 | 29.92609 | -90.32312 | 6900 ft | 252 kts | 255° |
| 2026-05-07 00:56 | 29.92211 | -90.34288 | 7674 ft | 254 kts | 254° |
| 2026-05-07 00:56 | 29.91802 | -90.36281 | 8418 ft | 256 kts | 254° |
| 2026-05-07 00:57 | 29.91385 | -90.38286 | 9162 ft | 259 kts | 254° |
| 2026-05-07 00:57 | 29.90959 | -90.40312 | 9881 ft | 261 kts | 254° |
| 2026-05-07 00:57 | 29.90524 | -90.42366 | 10426 ft | 270 kts | 254° |
| 2026-05-07 00:57 | 29.90056 | -90.44554 | 10563 ft | 292 kts | 254° |
| 2026-05-07 00:58 | 29.89556 | -90.46894 | 10839 ft | 306 kts | 254° |
| 2026-05-07 00:58 | 29.89047 | -90.49295 | 11396 ft | 310 kts | 254° |
| 2026-05-07 00:58 | 29.88532 | -90.51720 | 11999 ft | 313 kts | 254° |
| 2026-05-07 00:58 | 29.88013 | -90.54158 | 12595 ft | 315 kts | 254° |
| 2026-05-07 00:59 | 29.86961 | -90.59094 | 13800 ft | 319 kts | 254° |
| 2026-05-07 00:59 | 29.86428 | -90.61585 | 14328 ft | 321 kts | 255° |
| 2026-05-07 00:59 | 29.85894 | -90.64092 | 14870 ft | 323 kts | 255° |
| 2026-05-07 01:00 | 29.85357 | -90.66613 | 15418 ft | 325 kts | 255° |
| 2026-05-07 01:00 | 29.84816 | -90.69147 | 15966 ft | 327 kts | 255° |
| 2026-05-07 01:00 | 29.84269 | -90.71697 | 16523 ft | 328 kts | 255° |
| 2026-05-07 01:00 | 29.83719 | -90.74256 | 17074 ft | 330 kts | 255° |
| 2026-05-07 01:01 | 29.83166 | -90.76831 | 17617 ft | 332 kts | 255° |
| 2026-05-07 01:01 | 29.82609 | -90.79422 | 18180 ft | 334 kts | 256° |
| 2026-05-07 01:01 | 29.82048 | -90.82029 | 18680 ft | 336 kts | 256° |
| 2026-05-07 01:01 | 29.81485 | -90.84643 | 19176 ft | 338 kts | 256° |
| 2026-05-07 01:02 | 29.81109 | -90.86388 | 19508 ft | 339 kts | 256° |
| 2026-05-07 01:02 | 29.80348 | -90.89902 | 20176 ft | 342 kts | 256° |
| 2026-05-07 01:02 | 29.79771 | -90.92571 | 20672 ft | 345 kts | 256° |
| 2026-05-07 01:02 | 29.79191 | -90.95260 | 21169 ft | 347 kts | 256° |
| 2026-05-07 01:03 | 29.78608 | -90.97964 | 21665 ft | 349 kts | 256° |
| 2026-05-07 01:03 | 29.78219 | -90.99766 | 21993 ft | 350 kts | 256° |
| 2026-05-07 01:03 | 29.77627 | -91.02497 | 22479 ft | 352 kts | 256° |
| 2026-05-07 01:03 | 29.77031 | -91.05240 | 22960 ft | 354 kts | 256° |
| 2026-05-07 01:04 | 29.76431 | -91.08000 | 23429 ft | 357 kts | 256° |
| 2026-05-07 01:04 | 29.75826 | -91.10779 | 23810 ft | 359 kts | 256° |
| 2026-05-07 01:04 | 29.75218 | -91.13574 | 24183 ft | 361 kts | 256° |
| 2026-05-07 01:04 | 29.74605 | -91.16384 | 24547 ft | 363 kts | 256° |
| 2026-05-07 01:05 | 29.73987 | -91.19210 | 24907 ft | 365 kts | 256° |
| 2026-05-07 01:05 | 29.73369 | -91.22049 | 25258 ft | 367 kts | 256° |
| 2026-05-07 01:05 | 29.72747 | -91.24905 | 25610 ft | 369 kts | 256° |
| 2026-05-07 01:05 | 29.72116 | -91.27778 | 25951 ft | 371 kts | 256° |
| 2026-05-07 01:06 | 29.71481 | -91.30663 | 26287 ft | 373 kts | 256° |
| 2026-05-07 01:06 | 29.70843 | -91.33563 | 26615 ft | 375 kts | 256° |
| 2026-05-07 01:06 | 29.70201 | -91.36478 | 26936 ft | 377 kts | 256° |
| 2026-05-07 01:06 | 29.69556 | -91.39408 | 27254 ft | 379 kts | 256° |
| 2026-05-07 01:07 | 29.68907 | -91.42352 | 27570 ft | 381 kts | 256° |
| 2026-05-07 01:07 | 29.68256 | -91.45307 | 27885 ft | 383 kts | 256° |
| 2026-05-07 01:07 | 29.67603 | -91.48280 | 28206 ft | 384 kts | 256° |
| 2026-05-07 01:07 | 29.66945 | -91.51269 | 28520 ft | 386 kts | 256° |
| 2026-05-07 01:08 | 29.66281 | -91.54273 | 28833 ft | 388 kts | 256° |
| 2026-05-07 01:08 | 29.65615 | -91.57288 | 29147 ft | 390 kts | 256° |
| 2026-05-07 01:08 | 29.64954 | -91.60278 | 29459 ft | 392 kts | 256° |
| 2026-05-07 01:08 | 29.64270 | -91.63360 | 29760 ft | 394 kts | 256° |
| 2026-05-07 01:09 | 29.63600 | -91.66375 | 30073 ft | 395 kts | 256° |
| 2026-05-07 01:09 | 29.62919 | -91.69429 | 30437 ft | 394 kts | 256° |
| 2026-05-07 01:09 | 29.62237 | -91.72472 | 30808 ft | 392 kts | 256° |
| 2026-05-07 01:09 | 29.61557 | -91.75506 | 31159 ft | 392 kts | 256° |
| 2026-05-07 01:10 | 29.60882 | -91.78536 | 31519 ft | 391 kts | 256° |
| 2026-05-07 01:10 | 29.60206 | -91.81565 | 31844 ft | 391 kts | 256° |
| 2026-05-07 01:10 | 29.59530 | -91.84587 | 31925 ft | 388 kts | 256° |
| 2026-05-07 01:11 | 29.58192 | -91.90547 | 31943 ft | 383 kts | 256° |
| 2026-05-07 01:11 | 29.56865 | -91.96472 | 31936 ft | 383 kts | 256° |
| 2026-05-07 01:12 | 29.55531 | -92.02384 | 31943 ft | 382 kts | 256° |
| 2026-05-07 01:12 | 29.54189 | -92.08306 | 31938 ft | 382 kts | 256° |
| 2026-05-07 01:13 | 29.52851 | -92.14211 | 31935 ft | 382 kts | 256° |
| 2026-05-07 01:13 | 29.51513 | -92.20125 | 31942 ft | 382 kts | 256° |
| 2026-05-07 01:14 | 29.50174 | -92.26037 | 31943 ft | 382 kts | 256° |
| 2026-05-07 01:14 | 29.48827 | -92.31941 | 31938 ft | 382 kts | 256° |
| 2026-05-07 01:15 | 29.47478 | -92.37842 | 31940 ft | 382 kts | 256° |
| 2026-05-07 01:15 | 29.46128 | -92.43703 | 31939 ft | 382 kts | 256° |
| 2026-05-07 01:16 | 29.45515 | -92.49737 | 31946 ft | 382 kts | 266° |
| 2026-05-07 01:16 | 29.45318 | -92.55831 | 31945 ft | 382 kts | 266° |
| 2026-05-07 01:17 | 29.45106 | -92.61927 | 31944 ft | 382 kts | 266° |
| 2026-05-07 01:17 | 29.44888 | -92.68021 | 31941 ft | 382 kts | 266° |
| 2026-05-07 01:18 | 29.44666 | -92.74106 | 31944 ft | 382 kts | 266° |
| 2026-05-07 01:18 | 29.44440 | -92.80187 | 31943 ft | 382 kts | 266° |
| 2026-05-07 01:19 | 29.44217 | -92.86270 | 31942 ft | 381 kts | 266° |
| 2026-05-07 01:19 | 29.43994 | -92.92348 | 31943 ft | 381 kts | 266° |
| 2026-05-07 01:20 | 29.43764 | -92.98417 | 31947 ft | 381 kts | 266° |
| 2026-05-07 01:20 | 29.43529 | -93.04480 | 31937 ft | 380 kts | 265° |
| 2026-05-07 01:21 | 29.43289 | -93.10561 | 31242 ft | 384 kts | 265° |
| 2026-05-07 01:21 | 29.43168 | -93.13615 | 30703 ft | 381 kts | 265° |
| 2026-05-07 01:21 | 29.43048 | -93.16629 | 30278 ft | 376 kts | 265° |
| 2026-05-07 01:21 | 29.42931 | -93.19598 | 29834 ft | 371 kts | 265° |
| 2026-05-07 01:22 | 29.42817 | -93.22531 | 29399 ft | 365 kts | 265° |
| 2026-05-07 01:22 | 29.42703 | -93.25413 | 28994 ft | 359 kts | 265° |
| 2026-05-07 01:22 | 29.42590 | -93.28250 | 28604 ft | 353 kts | 265° |
| 2026-05-07 01:22 | 29.42475 | -93.31043 | 28222 ft | 348 kts | 265° |
| 2026-05-07 01:23 | 29.42361 | -93.33800 | 27848 ft | 344 kts | 264° |
| 2026-05-07 01:23 | 29.42249 | -93.36520 | 27503 ft | 340 kts | 265° |
| 2026-05-07 01:23 | 29.42140 | -93.39212 | 27138 ft | 336 kts | 264° |
| 2026-05-07 01:23 | 29.42031 | -93.41880 | 26790 ft | 333 kts | 264° |
| 2026-05-07 01:24 | 29.41921 | -93.44526 | 26449 ft | 331 kts | 264° |
| 2026-05-07 01:24 | 29.41811 | -93.47148 | 26111 ft | 327 kts | 264° |
| 2026-05-07 01:24 | 29.41704 | -93.49743 | 25772 ft | 324 kts | 264° |
| 2026-05-07 01:24 | 29.41597 | -93.52318 | 25434 ft | 321 kts | 264° |
| 2026-05-07 01:25 | 29.41490 | -93.54865 | 25092 ft | 318 kts | 264° |
| 2026-05-07 01:25 | 29.41383 | -93.57389 | 24752 ft | 316 kts | 264° |
| 2026-05-07 01:25 | 29.41275 | -93.59891 | 24402 ft | 313 kts | 264° |
| 2026-05-07 01:25 | 29.41170 | -93.62342 | 24070 ft | 310 kts | 264° |
| 2026-05-07 01:26 | 29.41065 | -93.64802 | 23720 ft | 308 kts | 264° |
| 2026-05-07 01:26 | 29.40958 | -93.67245 | 23348 ft | 306 kts | 264° |
| 2026-05-07 01:26 | 29.40851 | -93.69666 | 22970 ft | 303 kts | 264° |
| 2026-05-07 01:26 | 29.40744 | -93.72068 | 22600 ft | 299 kts | 264° |
| 2026-05-07 01:27 | 29.40637 | -93.74436 | 22258 ft | 296 kts | 264° |
| 2026-05-07 01:27 | 29.40531 | -93.76787 | 21909 ft | 293 kts | 264° |
| 2026-05-07 01:27 | 29.40429 | -93.79113 | 21559 ft | 291 kts | 264° |
| 2026-05-07 01:27 | 29.40331 | -93.81423 | 21212 ft | 289 kts | 264° |
| 2026-05-07 01:28 | 29.40231 | -93.83716 | 20867 ft | 287 kts | 264° |
| 2026-05-07 01:28 | 29.40132 | -93.85996 | 20515 ft | 286 kts | 264° |
| 2026-05-07 01:28 | 29.40031 | -93.88270 | 20174 ft | 285 kts | 264° |
| 2026-05-07 01:28 | 29.39928 | -93.90531 | 19829 ft | 283 kts | 264° |
| 2026-05-07 01:29 | 29.39826 | -93.92781 | 19483 ft | 282 kts | 264° |
| 2026-05-07 01:29 | 29.39723 | -93.95023 | 19139 ft | 281 kts | 264° |
| 2026-05-07 01:29 | 29.39619 | -93.97257 | 18797 ft | 280 kts | 264° |
| 2026-05-07 01:29 | 29.39518 | -93.99486 | 18453 ft | 279 kts | 264° |
| 2026-05-07 01:30 | 29.39417 | -94.01707 | 18097 ft | 279 kts | 264° |
| 2026-05-07 01:30 | 29.39314 | -94.03923 | 17740 ft | 277 kts | 264° |
| 2026-05-07 01:30 | 29.39213 | -94.06116 | 17466 ft | 275 kts | 264° |
| 2026-05-07 01:30 | 29.39112 | -94.08305 | 17141 ft | 274 kts | 264° |
| 2026-05-07 01:31 | 29.39011 | -94.10487 | 16801 ft | 273 kts | 264° |
| 2026-05-07 01:31 | 29.38910 | -94.12659 | 16467 ft | 272 kts | 264° |
| 2026-05-07 01:31 | 29.38809 | -94.14819 | 16131 ft | 271 kts | 264° |
| 2026-05-07 01:31 | 29.38707 | -94.16974 | 15794 ft | 270 kts | 264° |
| 2026-05-07 01:32 | 29.38604 | -94.19124 | 15459 ft | 270 kts | 264° |
| 2026-05-07 01:32 | 29.38502 | -94.21268 | 15129 ft | 269 kts | 264° |
| 2026-05-07 01:32 | 29.38402 | -94.23405 | 14797 ft | 268 kts | 264° |
| 2026-05-07 01:32 | 29.38302 | -94.25540 | 14467 ft | 268 kts | 264° |
| 2026-05-07 01:33 | 29.38201 | -94.27647 | 14143 ft | 267 kts | 264° |
| 2026-05-07 01:33 | 29.38099 | -94.29773 | 13814 ft | 267 kts | 264° |
| 2026-05-07 01:33 | 29.37996 | -94.31896 | 13463 ft | 267 kts | 264° |
| 2026-05-07 01:33 | 29.37894 | -94.34016 | 13126 ft | 266 kts | 264° |
| 2026-05-07 01:34 | 29.37988 | -94.36147 | 13043 ft | 276 kts | 277° |
| 2026-05-07 01:34 | 29.38605 | -94.38268 | 12897 ft | 287 kts | 292° |
| 2026-05-07 01:34 | 29.39729 | -94.40191 | 12729 ft | 293 kts | 301° |
| 2026-05-07 01:34 | 29.40958 | -94.42062 | 12546 ft | 293 kts | 301° |
| 2026-05-07 01:35 | 29.42176 | -94.43932 | 12382 ft | 293 kts | 301° |
| 2026-05-07 01:35 | 29.43391 | -94.45806 | 12209 ft | 292 kts | 301° |
| 2026-05-07 01:35 | 29.44604 | -94.47681 | 12042 ft | 292 kts | 301° |
| 2026-05-07 01:35 | 29.45814 | -94.49556 | 11868 ft | 292 kts | 301° |
| 2026-05-07 01:36 | 29.47024 | -94.51427 | 11702 ft | 292 kts | 301° |
| 2026-05-07 01:36 | 29.48234 | -94.53302 | 11527 ft | 292 kts | 301° |
| 2026-05-07 01:36 | 29.49442 | -94.55176 | 11360 ft | 291 kts | 301° |
| 2026-05-07 01:36 | 29.50695 | -94.56981 | 11173 ft | 289 kts | 310° |
| 2026-05-07 01:37 | 29.52323 | -94.58331 | 11004 ft | 292 kts | 329° |
| 2026-05-07 01:37 | 29.54238 | -94.59164 | 10846 ft | 295 kts | 336° |
| 2026-05-07 01:37 | 29.56175 | -94.59931 | 10678 ft | 294 kts | 336° |
| 2026-05-07 01:37 | 29.58112 | -94.60704 | 10495 ft | 294 kts | 336° |
| 2026-05-07 01:38 | 29.60040 | -94.61476 | 10333 ft | 293 kts | 336° |
| 2026-05-07 01:38 | 29.61939 | -94.62236 | 10157 ft | 292 kts | 336° |
| 2026-05-07 01:38 | 29.63882 | -94.63014 | 9985 ft | 292 kts | 336° |
| 2026-05-07 01:38 | 29.65794 | -94.63779 | 9820 ft | 291 kts | 336° |
| 2026-05-07 01:39 | 29.67680 | -94.64535 | 9635 ft | 289 kts | 336° |
| 2026-05-07 01:39 | 29.69577 | -94.65294 | 9467 ft | 288 kts | 336° |
| 2026-05-07 01:39 | 29.71468 | -94.66054 | 9295 ft | 287 kts | 336° |
| 2026-05-07 01:39 | 29.73349 | -94.66810 | 9131 ft | 286 kts | 336° |
| 2026-05-07 01:40 | 29.75226 | -94.67562 | 8963 ft | 285 kts | 337° |
| 2026-05-07 01:40 | 29.77094 | -94.68307 | 8796 ft | 284 kts | 337° |
| 2026-05-07 01:40 | 29.78956 | -94.69049 | 8632 ft | 282 kts | 337° |
| 2026-05-07 01:40 | 29.80809 | -94.69790 | 8468 ft | 281 kts | 337° |
| 2026-05-07 01:41 | 29.82654 | -94.70530 | 8303 ft | 280 kts | 337° |
| 2026-05-07 01:41 | 29.84490 | -94.71268 | 8132 ft | 279 kts | 337° |
| 2026-05-07 01:41 | 29.86325 | -94.72005 | 7979 ft | 278 kts | 337° |
| 2026-05-07 01:41 | 29.88150 | -94.72740 | 7818 ft | 277 kts | 337° |
| 2026-05-07 01:42 | 29.89969 | -94.73474 | 7660 ft | 277 kts | 338° |
| 2026-05-07 01:42 | 29.91781 | -94.74204 | 7487 ft | 275 kts | 338° |
| 2026-05-07 01:42 | 29.93592 | -94.74933 | 7330 ft | 275 kts | 338° |
| 2026-05-07 01:42 | 29.95390 | -94.75672 | 7171 ft | 273 kts | 334° |
| 2026-05-07 01:43 | 29.96975 | -94.76826 | 7044 ft | 268 kts | 314° |
| 2026-05-07 01:43 | 29.98113 | -94.78483 | 6977 ft | 258 kts | 295° |
| 2026-05-07 01:43 | 29.98766 | -94.80336 | 6981 ft | 242 kts | 288° |
| 2026-05-07 01:43 | 29.99228 | -94.82144 | 6934 ft | 230 kts | 276° |
| 2026-05-07 01:44 | 29.99289 | -94.83970 | 6669 ft | 227 kts | 269° |
| 2026-05-07 01:44 | 29.99290 | -94.85727 | 6368 ft | 227 kts | 269° |
| 2026-05-07 01:44 | 29.99293 | -94.87547 | 6045 ft | 227 kts | 269° |
| 2026-05-07 01:44 | 29.99298 | -94.89363 | 5735 ft | 226 kts | 269° |
| 2026-05-07 01:45 | 29.99303 | -94.91173 | 5428 ft | 225 kts | 269° |
| 2026-05-07 01:45 | 29.99307 | -94.92972 | 5118 ft | 224 kts | 269° |
| 2026-05-07 01:45 | 29.99311 | -94.94753 | 4987 ft | 218 kts | 269° |
| 2026-05-07 01:45 | 29.99314 | -94.95888 | 4978 ft | 209 kts | 269° |
| 2026-05-07 01:46 | 29.99314 | -94.98087 | 5017 ft | 204 kts | 269° |
| 2026-05-07 01:46 | 29.99317 | -94.99697 | 4991 ft | 203 kts | 269° |
| 2026-05-07 01:46 | 29.99320 | -95.01324 | 4986 ft | 203 kts | 269° |
| 2026-05-07 01:46 | 29.99323 | -95.02952 | 4854 ft | 201 kts | 269° |
| 2026-05-07 01:47 | 29.99326 | -95.04534 | 4638 ft | 194 kts | 269° |
| 2026-05-07 01:47 | 29.99328 | -95.06074 | 4397 ft | 190 kts | 269° |
| 2026-05-07 01:47 | 29.99330 | -95.07588 | 4159 ft | 186 kts | 269° |
| 2026-05-07 01:47 | 29.99332 | -95.09067 | 3918 ft | 183 kts | 269° |
| 2026-05-07 01:48 | 29.99334 | -95.10519 | 3684 ft | 180 kts | 269° |
| 2026-05-07 01:48 | 29.99336 | -95.11950 | 3451 ft | 175 kts | 269° |
| 2026-05-07 01:48 | 29.99338 | -95.13293 | 3257 ft | 157 kts | 270° |
| 2026-05-07 01:48 | 29.99339 | -95.14498 | 3058 ft | 147 kts | 270° |
| 2026-05-07 01:49 | 29.99340 | -95.15674 | 2870 ft | 146 kts | 271° |
| 2026-05-07 01:49 | 29.99341 | -95.16841 | 2684 ft | 146 kts | 271° |
| 2026-05-07 01:49 | 29.99341 | -95.17613 | 2562 ft | 146 kts | 271° |
| 2026-05-07 01:49 | 29.99342 | -95.18782 | 2373 ft | 146 kts | 272° |
| 2026-05-07 01:50 | 29.99343 | -95.19953 | 2176 ft | 147 kts | 274° |
| 2026-05-07 01:50 | 29.99344 | -95.21144 | 1994 ft | 148 kts | 273° |
| 2026-05-07 01:50 | 29.99344 | -95.22326 | 1801 ft | 147 kts | 274° |
| 2026-05-07 01:50 | 29.99344 | -95.23500 | 1613 ft | 146 kts | 274° |
| 2026-05-07 01:51 | 29.99344 | -95.24678 | 1416 ft | 147 kts | 274° |
| 2026-05-07 01:51 | 29.99345 | -95.25858 | 1222 ft | 147 kts | 274° |
| 2026-05-07 01:51 | 29.99344 | -95.27032 | 1041 ft | 146 kts | 275° |
| 2026-05-07 01:51 | 29.99345 | -95.28199 | 860 ft | 144 kts | 273° |
| 2026-05-07 01:52 | 29.99353 | -95.29345 | 685 ft | 143 kts | 273° |
| 2026-05-07 01:52 | 29.99344 | -95.30496 | 546 ft | 144 kts | 274° |
| 2026-05-07 01:52 | 29.99341 | -95.31641 | 309 ft | 140 kts | 276° |
| 2026-05-07 01:52 | 29.99343 | -95.32769 | 114 ft | 139 kts | 273° |
| 2026-05-07 01:53 | 29.99343 | -95.33693 | 107 ft | 90 kts | 270° |
| 2026-05-07 01:53 | 29.99342 | -95.34215 | 105 ft | 40 kts | 270° |
| 2026-05-07 01:53 | 29.99342 | -95.34447 | 105 ft | 27 kts | 270° |
| 2026-05-07 01:53 | 29.99328 | -95.34647 | 107 ft | 25 kts | 258° |
| 2026-05-07 01:54 | 29.99264 | -95.34821 | 107 ft | 20 kts | 241° |
| 2026-05-07 01:54 | 29.99203 | -95.34942 | 106 ft | 16 kts | 240° |
| 2026-05-07 01:54 | 29.99130 | -95.35027 | 107 ft | 14 kts | 192° |
| 2026-05-07 01:54 | 29.99089 | -95.34953 | 105 ft | 13 kts | 93° |
| 2026-05-07 01:55 | 29.99085 | -95.34845 | 107 ft | 15 kts | 90° |
| 2026-05-07 01:55 | 29.99085 | -95.34718 | 107 ft | 17 kts | 90° |
| 2026-05-07 01:55 | 29.99085 | -95.34574 | 107 ft | 18 kts | 90° |
| 2026-05-07 01:55 | 29.99085 | -95.34424 | 107 ft | 19 kts | 91° |
| 2026-05-07 01:56 | 29.99086 | -95.34271 | 107 ft | 18 kts | 90° |
| 2026-05-07 01:56 | 29.99087 | -95.34131 | 107 ft | 17 kts | 89° |
| 2026-05-07 01:56 | 29.99089 | -95.34000 | 107 ft | 16 kts | 90° |
| 2026-05-07 01:56 | 29.99089 | -95.33882 | 107 ft | 14 kts | 90° |
| 2026-05-07 01:57 | 29.99089 | -95.33770 | 107 ft | 14 kts | 89° |
| 2026-05-07 01:57 | 29.99090 | -95.33641 | 107 ft | 18 kts | 89° |
| 2026-05-07 01:57 | 29.99091 | -95.33490 | 107 ft | 19 kts | 90° |
| 2026-05-07 01:57 | 29.99091 | -95.33345 | 107 ft | 17 kts | 90° |
| 2026-05-07 01:58 | 29.99091 | -95.33216 | 107 ft | 15 kts | 89° |
| 2026-05-07 01:58 | 29.99091 | -95.33109 | 107 ft | 12 kts | 90° |
| 2026-05-07 01:58 | 29.99067 | -95.33032 | 107 ft | 10 kts | 150° |
| 2026-05-07 01:58 | 29.98994 | -95.33026 | 107 ft | 12 kts | 180° |
| 2026-05-07 01:59 | 29.98898 | -95.33026 | 107 ft | 16 kts | 180° |
| 2026-05-07 01:59 | 29.98783 | -95.33026 | 107 ft | 17 kts | 180° |
| 2026-05-07 01:59 | 29.98663 | -95.33026 | 107 ft | 17 kts | 180° |
| 2026-05-07 01:59 | 29.98550 | -95.33026 | 107 ft | 16 kts | 180° |
| 2026-05-07 02:00 | 29.98445 | -95.33026 | 107 ft | 15 kts | 180° |
| 2026-05-07 02:00 | 29.98339 | -95.33026 | 107 ft | 14 kts | 183° |
| 2026-05-07 02:00 | 29.98301 | -95.33109 | 107 ft | 13 kts | 271° |
| 2026-05-07 02:00 | 29.98301 | -95.33214 | 107 ft | 13 kts | 270° |
| 2026-05-07 02:01 | 29.98300 | -95.33325 | 107 ft | 15 kts | 270° |
| 2026-05-07 02:01 | 29.98300 | -95.33445 | 107 ft | 15 kts | 270° |
| 2026-05-07 02:01 | 29.98304 | -95.33569 | 107 ft | 16 kts | 275° |
| 2026-05-07 02:01 | 29.98331 | -95.33682 | 107 ft | 14 kts | 321° |
| 2026-05-07 02:02 | 29.98427 | -95.33693 | 107 ft | 14 kts | 359° |
| 2026-05-07 02:02 | 29.98494 | -95.33696 | 107 ft | 8 kts | 0° |
| 2026-05-07 02:02 | 29.98530 | -95.33696 | 107 ft | 2 kts | 0° |
| 2026-05-07 02:02 | 29.98536 | -95.33696 | 94 ft | 0 kts | 0° |